Time;durP1;ratioP1;P1;durP2;ratioP2;P2;SDS_P1;SDS_P2;PMS_P1;PMS_P2;Temp;Humidity;BMP_temperature;BMP_pressure;BME280_temperature;BME280_humidity;BME280_pressure;Samples;Min_cycle;Max_cycle;Signal;HPM_P1;HPM_P2
2023/02/14 00:00:14;;;;;;;;;;;;;;;13.59;72.28;103172.28;1271569;23;641;-66
2023/02/14 00:01:04;;;;;;;;;;;;;;;13.60;72.65;103172.22;1272146;23;641;-66
2023/02/14 00:01:54;;;;;;;;;;;;;;;13.61;72.79;103173.09;1271772;23;599;-66
2023/02/14 00:02:45;;;;;;;;;;;;;;;13.63;72.07;103174.72;1271990;23;622;-66
2023/02/14 00:03:35;;;;;;;;;;;;;;;13.64;71.86;103170.25;1271655;23;630;-65
2023/02/14 00:04:26;;;;;;;;;;;;;;;13.64;72.16;103165.75;1271872;23;646;-66
2023/02/14 00:05:16;;;;;;;;;;;;;;;13.64;72.06;103172.94;1273424;23;680;-66
2023/02/14 00:06:07;;;;;;;;;;;;;;;13.62;72.63;103174.78;1271843;23;680;-66
2023/02/14 00:06:57;;;;;;;;;;;;;;;13.62;72.44;103174.78;1272081;23;621;-66
2023/02/14 00:07:47;;;;;;;;;;;;;;;13.62;72.33;103172.13;1271643;23;613;-66
2023/02/14 00:08:39;;;;;;;;;;;;;;;13.59;72.28;103173.13;1271821;23;650;-65
2023/02/14 00:09:30;;;;;;;;;;;;;;;13.60;72.99;103174.88;1271863;23;669;-66
2023/02/14 00:10:20;;;;;;;;;;;;;;;13.62;72.24;103174.78;1271820;23;645;-66
2023/02/14 00:11:11;;;;;;;;;;;;;;;13.62;72.55;103177.47;1271834;23;622;-65
2023/02/14 00:12:01;;;;;;;;;;;;;;;13.61;72.60;103175.75;1271911;23;641;-65
2023/02/14 00:12:52;;;;;;;;;;;;;;;13.61;72.42;103173.09;1271794;23;1957;-65
2023/02/14 00:15:21;;;;;;;;;;;;;;;13.61;72.15;103170.41;1271812;23;598;-65
2023/02/14 00:16:02;;;;;;;;;;;;;;;13.61;72.35;103170.41;1272733;23;605;-65
2023/02/14 00:16:52;;;;;;;;;;;;;;;13.59;72.63;103172.28;1271651;23;658;-65
2023/02/14 00:17:43;;;;;;;;;;;;;;;13.59;72.21;103167.78;1271831;23;680;-65
2023/02/14 00:19:43;;;;;;;;;;;;;;;13.60;72.02;103166.84;1272391;23;626;-66
2023/02/14 00:20:33;;;;;;;;;;;;;;;13.59;72.88;103167.78;1272023;23;634;-66
2023/02/14 00:21:23;;;;;;;;;;;;;;;13.60;72.80;103171.34;1271636;23;673;-66
2023/02/14 00:22:14;;;;;;;;;;;;;;;13.58;72.51;103173.19;1272030;23;618;-67
2023/02/14 00:23:04;;;;;;;;;;;;;;;13.57;72.74;103166.97;1271784;23;662;-66
2023/02/14 00:23:55;;;;;;;;;;;;;;;13.57;72.66;103171.44;1271904;23;676;-66
2023/02/14 00:24:46;;;;;;;;;;;;;;;13.53;72.68;103166.22;1273432;23;688;-65
2023/02/14 00:25:36;;;;;;;;;;;;;;;13.55;72.18;103168.84;1271791;23;598;-66
2023/02/14 00:26:27;;;;;;;;;;;;;;;13.55;72.53;103168.84;1271835;23;657;-65
2023/02/14 00:27:17;;;;;;;;;;;;;;;13.55;72.74;103164.34;1272096;23;637;-65
2023/02/14 00:28:08;;;;;;;;;;;;;;;13.54;72.47;103165.28;1271885;23;646;-65
2023/02/14 00:28:58;;;;;;;;;;;;;;;13.54;72.44;103167.09;1271957;23;634;-65
2023/02/14 00:29:48;;;;;;;;;;;;;;;13.57;72.32;103160.72;1271714;23;606;-65
2023/02/14 00:30:39;;;;;;;;;;;;;;;13.58;72.23;103165.16;1271756;23;645;-65
2023/02/14 00:31:29;;;;;;;;;;;;;;;13.58;72.27;103167.84;1271548;23;606;-65
2023/02/14 00:32:20;;;;;;;;;;;;;;;13.57;72.72;103158.94;1271708;23;642;-65
2023/02/14 00:33:10;;;;;;;;;;;;;;;13.58;71.85;103159.81;1271834;23;626;-65
2023/02/14 00:34:00;;;;;;;;;;;;;;;13.56;72.20;103157.19;1271797;23;606;-65
2023/02/14 00:34:51;;;;;;;;;;;;;;;13.57;71.98;103158.94;1271810;23;670;-65
2023/02/14 00:35:41;;;;;;;;;;;;;;;13.57;72.24;103158.06;1271502;23;649;-65
2023/02/14 00:36:32;;;;;;;;;;;;;;;13.57;72.42;103155.38;1271700;23;658;-65
2023/02/14 00:37:22;;;;;;;;;;;;;;;13.54;71.87;103161.72;1271463;23;686;-65
2023/02/14 00:38:12;;;;;;;;;;;;;;;13.54;71.86;103157.25;1271654;23;622;-65
2023/02/14 00:39:03;;;;;;;;;;;;;;;13.54;72.60;103157.25;1271885;23;669;-65
2023/02/14 00:39:53;;;;;;;;;;;;;;;13.55;71.95;103158.13;1271581;23;658;-65
2023/02/14 00:40:44;;;;;;;;;;;;;;;13.54;72.16;103154.56;1271995;23;661;-65
2023/02/14 00:41:34;;;;;;;;;;;;;;;13.55;72.46;103158.13;1271479;23;661;-65
2023/02/14 00:42:25;;;;;;;;;;;;;;;13.53;72.05;103160.84;1271640;23;669;-65
2023/02/14 00:43:15;;;;;;;;;;;;;;;13.53;72.61;103158.19;1271982;23;644;-64
2023/02/14 00:44:05;;;;;;;;;;;;;;;13.52;71.99;103153.75;1271536;23;598;-65
2023/02/14 00:44:56;;;;;;;;;;;;;;;13.52;72.24;103159.09;1271933;23;634;-65
2023/02/14 00:45:46;;;;;;;;;;;;;;;13.52;72.70;103159.09;1271598;23;653;-65
2023/02/14 00:46:37;;;;;;;;;;;;;;;13.50;72.37;103152.94;1271800;23;634;-65
2023/02/14 00:47:27;;;;;;;;;;;;;;;13.51;72.44;103156.50;1271813;23;645;-65
2023/02/14 00:48:17;;;;;;;;;;;;;;;13.51;72.50;103153.81;1271695;23;621;-65
2023/02/14 00:49:08;;;;;;;;;;;;;;;13.48;72.02;103154.81;1271863;23;661;-65
2023/02/14 00:50:01;;;;;;;;;;;;;;;13.48;72.50;103152.13;1271698;23;617;-65
2023/02/14 00:50:52;;;;;;;;;;;;;;;13.47;72.70;103144.16;1271674;23;650;-65
2023/02/14 00:51:42;;;;;;;;;;;;;;;13.47;71.97;103154.84;1271256;23;657;-67
2023/02/14 00:52:32;;;;;;;;;;;;;;;13.48;72.81;103149.44;1266054;23;634;-66
2023/02/14 00:53:23;;;;;;;;;;;;;;;13.49;72.12;103151.19;1267129;23;689;-66
2023/02/14 00:54:13;;;;;;;;;;;;;;;13.50;72.56;103144.91;1272439;23;665;-66
2023/02/14 00:55:04;;;;;;;;;;;;;;;13.48;72.14;103149.44;1271740;23;674;-66
2023/02/14 00:55:54;;;;;;;;;;;;;;;13.45;73.01;103141.53;1272255;23;658;-66
2023/02/14 00:56:44;;;;;;;;;;;;;;;13.44;72.65;103138.91;1271557;23;616;-66
2023/02/14 00:57:35;;;;;;;;;;;;;;;13.47;72.38;103138.78;1271890;23;660;-66
2023/02/14 00:58:25;;;;;;;;;;;;;;;13.47;72.63;103142.34;1271592;23;654;-66
2023/02/14 00:59:16;;;;;;;;;;;;;;;13.47;72.08;103138.78;1271814;23;696;-65
2023/02/14 01:00:06;;;;;;;;;;;;;;;13.46;72.12;103143.28;1271526;23;676;-66
2023/02/14 01:00:57;;;;;;;;;;;;;;;13.47;72.52;103145.03;1271731;23;645;-65
2023/02/14 01:01:47;;;;;;;;;;;;;;;13.45;72.58;103141.53;1271888;23;696;-68
2023/02/14 01:02:37;;;;;;;;;;;;;;;13.46;72.83;103143.28;1271708;23;625;-66
2023/02/14 01:03:28;;;;;;;;;;;;;;;13.45;72.22;103141.53;1271781;23;614;-66
2023/02/14 01:04:18;;;;;;;;;;;;;;;13.43;72.44;103138.06;1271457;23;763;-66
2023/02/14 01:05:09;;;;;;;;;;;;;;;13.43;72.25;103142.56;1271747;23;673;-66
2023/02/14 01:05:59;;;;;;;;;;;;;;;13.42;72.52;103130.97;1272016;23;658;-66
2023/02/14 01:06:49;;;;;;;;;;;;;;;13.41;72.21;103134.56;1271677;23;600;-67
2023/02/14 01:07:40;;;;;;;;;;;;;;;13.40;72.60;103131.94;1271890;23;649;-66
2023/02/14 01:08:30;;;;;;;;;;;;;;;13.41;72.22;103128.34;1271521;23;657;-66
2023/02/14 01:09:21;;;;;;;;;;;;;;;13.42;73.17;103136.31;1271759;23;712;-66
2023/02/14 01:10:11;;;;;;;;;;;;;;;13.44;72.88;103134.41;1271703;23;641;-66
2023/02/14 01:11:02;;;;;;;;;;;;;;;13.45;72.11;103130.81;1271932;23;657;-66
2023/02/14 01:11:52;;;;;;;;;;;;;;;13.45;72.78;103130.81;1271973;23;593;-65
2023/02/14 01:12:43;;;;;;;;;;;;;;;13.43;72.11;103131.84;1271593;23;1913;-65
2023/02/14 01:13:33;;;;;;;;;;;;;;;13.42;72.58;103127.41;1271833;23;642;-65
2023/02/14 01:14:23;;;;;;;;;;;;;;;13.41;73.02;103123.88;1271569;23;634;-66
2023/02/14 01:15:14;;;;;;;;;;;;;;;13.41;72.77;103125.66;1271759;23;657;-66
2023/02/14 01:16:05;;;;;;;;;;;;;;;13.40;72.39;103130.16;1271602;23;638;-66
2023/02/14 01:16:55;;;;;;;;;;;;;;;13.39;72.29;103122.16;1271287;23;606;-66
2023/02/14 01:17:46;;;;;;;;;;;;;;;13.38;72.64;103126.66;1271448;23;607;-66
2023/02/14 01:18:36;;;;;;;;;;;;;;;13.39;72.20;103127.53;1271793;23;638;-65
2023/02/14 01:19:26;;;;;;;;;;;;;;;13.37;72.19;103119.56;1271595;23;646;-65
2023/02/14 01:20:17;;;;;;;;;;;;;;;13.39;72.87;103120.38;1271772;23;661;-65
2023/02/14 01:21:07;;;;;;;;;;;;;;;13.38;72.32;103125.78;1265951;23;633;-66
2023/02/14 01:21:58;;;;;;;;;;;;;;;13.38;72.08;103117.75;1266152;23;630;-66
2023/02/14 01:22:48;;;;;;;;;;;;;;;13.37;72.71;103122.22;1272389;23;657;-66
2023/02/14 01:23:39;;;;;;;;;;;;;;;13.38;72.78;103118.63;1271611;23;621;-66
2023/02/14 01:24:29;;;;;;;;;;;;;;;13.38;72.33;103123.97;1271882;23;622;-66
2023/02/14 01:25:20;;;;;;;;;;;;;;;13.37;72.76;103116.88;1271622;23;630;-65
2023/02/14 01:26:10;;;;;;;;;;;;;;;13.38;72.14;103123.09;1272087;23;660;-66
2023/02/14 01:27:00;;;;;;;;;;;;;;;13.37;71.96;103118.69;1271628;23;656;-66
2023/02/14 01:27:51;;;;;;;;;;;;;;;13.38;72.70;103123.97;1271872;23;672;-66
2023/02/14 01:28:41;;;;;;;;;;;;;;;13.38;72.05;103118.63;1271570;23;676;-65
2023/02/14 01:29:32;;;;;;;;;;;;;;;13.39;72.77;103115.00;1271767;23;608;-65
2023/02/14 01:30:22;;;;;;;;;;;;;;;13.40;72.63;103116.75;1271952;23;653;-66
2023/02/14 01:31:13;;;;;;;;;;;;;;;13.42;72.36;103114.03;1271587;23;665;-65
2023/02/14 01:32:03;;;;;;;;;;;;;;;13.41;71.93;103113.16;1271828;23;670;-65
2023/02/14 01:32:53;;;;;;;;;;;;;;;13.41;72.26;103112.28;1271562;23;1885;-66
2023/02/14 01:33:44;;;;;;;;;;;;;;;13.38;72.24;103113.25;1271758;23;655;-65
2023/02/14 01:34:34;;;;;;;;;;;;;;;13.39;72.46;103119.50;1271500;23;787;-66
2023/02/14 01:35:25;;;;;;;;;;;;;;;13.38;72.44;103117.75;1270953;23;601;-66
2023/02/14 01:36:15;;;;;;;;;;;;;;;13.38;72.10;103118.63;1271790;23;680;-66
2023/02/14 01:37:06;;;;;;;;;;;;;;;13.38;72.82;103123.97;1271543;23;645;-66
2023/02/14 01:37:56;;;;;;;;;;;;;;;13.38;72.36;103125.78;1271704;23;673;-65
2023/02/14 01:38:46;;;;;;;;;;;;;;;13.38;72.50;103117.75;1271634;23;610;-66
2023/02/14 01:39:37;;;;;;;;;;;;;;;13.35;73.07;103117.88;1271721;23;716;-65
2023/02/14 01:40:27;;;;;;;;;;;;;;;13.35;72.80;103121.41;1271410;23;610;-66
2023/02/14 01:41:18;;;;;;;;;;;;;;;13.36;72.39;103120.50;1271736;23;622;-66
2023/02/14 01:42:08;;;;;;;;;;;;;;;13.36;72.76;103125.84;1271846;23;688;-66
2023/02/14 01:42:59;;;;;;;;;;;;;;;13.35;72.35;103125.91;1266149;23;622;-66
2023/02/14 01:43:49;;;;;;;;;;;;;;;13.34;72.54;103130.38;1266921;23;629;-66
2023/02/14 01:44:39;;;;;;;;;;;;;;;13.33;72.67;103120.59;1272427;23;790;-66
2023/02/14 01:45:31;;;;;;;;;;;;;;;13.35;72.90;103121.41;1271652;23;633;-66
2023/02/14 01:46:21;;;;;;;;;;;;;;;13.34;72.20;103122.34;1271944;23;704;-65
2023/02/14 01:47:11;;;;;;;;;;;;;;;13.33;72.84;103123.28;1271652;23;657;-66
2023/02/14 01:48:02;;;;;;;;;;;;;;;13.34;73.01;103118.78;1271770;23;606;-66
2023/02/14 01:48:52;;;;;;;;;;;;;;;13.32;72.80;103121.53;1271433;23;665;-65
2023/02/14 01:49:43;;;;;;;;;;;;;;;13.33;72.09;103120.59;1270979;23;654;-66
2023/02/14 01:50:33;;;;;;;;;;;;;;;13.33;72.80;103125.97;1271817;23;637;-65
2023/02/14 01:51:23;;;;;;;;;;;;;;;13.31;72.24;103119.78;1271541;23;638;-65
2023/02/14 01:52:14;;;;;;;;;;;;;;;13.32;72.18;103117.97;1271825;23;645;-65
2023/02/14 01:53:04;;;;;;;;;;;;;;;13.33;72.07;103127.75;1271313;23;1892;-66
2023/02/14 01:53:55;;;;;;;;;;;;;;;13.30;72.71;103126.06;1271633;23;649;-66
2023/02/14 01:54:45;;;;;;;;;;;;;;;13.29;72.73;103118.09;1271957;23;649;-65
2023/02/14 01:55:36;;;;;;;;;;;;;;;13.29;72.36;103121.66;1271645;23;590;-64
2023/02/14 01:56:26;;;;;;;;;;;;;;;13.29;72.79;103118.97;1271583;23;1217;-64
2023/02/14 01:57:17;;;;;;;;;;;;;;;13.31;72.91;103118.91;1271746;23;622;-65
2023/02/14 01:58:07;;;;;;;;;;;;;;;13.29;72.27;103116.31;1271773;23;649;-64
2023/02/14 01:58:57;;;;;;;;;;;;;;;13.30;72.83;103110.00;1271504;23;617;-64
2023/02/14 01:59:48;;;;;;;;;;;;;;;13.31;72.32;103108.19;1271912;23;672;-64
2023/02/14 02:00:57;;;;;;;;;;;;;;;13.30;72.28;103115.38;1271426;23;641;-64
2023/02/14 02:01:47;;;;;;;;;;;;;;;13.27;72.40;103109.25;1271743;23;630;-64
2023/02/14 02:02:37;;;;;;;;;;;;;;;13.26;72.42;103113.72;1271552;23;597;-64
2023/02/14 02:03:28;;;;;;;;;;;;;;;13.26;73.05;103103.03;1265836;23;700;-65
2023/02/14 02:04:18;;;;;;;;;;;;;;;13.28;72.50;103111.00;1266409;23;693;-65
2023/02/14 02:05:09;;;;;;;;;;;;;;;13.28;72.29;103116.34;1272632;23;626;-64
2023/02/14 02:05:59;;;;;;;;;;;;;;;13.27;72.14;103120.84;1271817;23;662;-65
2023/02/14 02:06:50;;;;;;;;;;;;;;;13.25;72.41;103119.19;1271628;23;661;-65
2023/02/14 02:07:40;;;;;;;;;;;;;;;13.24;72.70;103107.59;1271574;23;642;-65
2023/02/14 02:08:30;;;;;;;;;;;;;;;13.26;73.07;103116.41;1271474;23;664;-65
2023/02/14 02:09:21;;;;;;;;;;;;;;;13.24;72.90;103120.13;1271688;23;618;-64
2023/02/14 02:10:11;;;;;;;;;;;;;;;13.25;73.17;103111.16;1271824;23;866;-65
2023/02/14 02:11:02;;;;;;;;;;;;;;;13.25;72.88;103113.81;1271591;23;658;-65
2023/02/14 02:11:52;;;;;;;;;;;;;;;13.24;72.24;103112.09;1271835;23;668;-65
2023/02/14 02:12:42;;;;;;;;;;;;;;;13.25;72.29;103120.06;1271353;23;1948;-67
2023/02/14 02:13:33;;;;;;;;;;;;;;;13.24;72.36;103118.31;1271791;23;685;-67
2023/02/14 02:14:23;;;;;;;;;;;;;;;13.24;72.70;103112.09;1271409;23;649;-67
2023/02/14 02:15:14;;;;;;;;;;;;;;;13.23;72.58;103113.88;1271726;23;638;-66
2023/02/14 02:16:04;;;;;;;;;;;;;;;13.23;72.41;103111.22;1271875;23;680;-66
2023/02/14 02:16:55;;;;;;;;;;;;;;;13.25;72.72;103113.81;1271512;23;626;-67
2023/02/14 02:17:45;;;;;;;;;;;;;;;13.24;72.72;103114.75;1271803;23;704;-66
2023/02/14 02:18:36;;;;;;;;;;;;;;;13.23;72.63;103113.88;1270891;23;673;-67
2023/02/14 02:19:26;;;;;;;;;;;;;;;13.23;72.57;103113.88;1271694;23;676;-67
2023/02/14 02:20:17;;;;;;;;;;;;;;;13.24;72.25;103120.13;1271494;23;603;-67
2023/02/14 02:21:07;;;;;;;;;;;;;;;13.24;72.24;103114.75;1271722;23;796;-66
2023/02/14 02:21:57;;;;;;;;;;;;;;;13.22;72.35;103113.94;1271511;23;638;-67
2023/02/14 02:22:48;;;;;;;;;;;;;;;13.20;72.77;103119.34;1271692;23;622;-66
2023/02/14 02:23:38;;;;;;;;;;;;;;;13.22;72.92;103109.47;1271638;23;662;-67
2023/02/14 02:24:29;;;;;;;;;;;;;;;13.21;72.87;103110.41;1271262;23;646;-67
2023/02/14 02:25:19;;;;;;;;;;;;;;;13.22;72.64;103114.81;1271728;23;645;-67
2023/02/14 02:26:10;;;;;;;;;;;;;;;13.21;72.47;103115.75;1271378;23;740;-67
2023/02/14 02:27:00;;;;;;;;;;;;;;;13.22;72.72;103108.59;1271868;23;684;-67
2023/02/14 02:27:50;;;;;;;;;;;;;;;13.20;72.06;103109.53;1271400;23;740;-67
2023/02/14 02:28:41;;;;;;;;;;;;;;;13.21;72.28;103113.06;1271346;23;720;-67
2023/02/14 02:29:31;;;;;;;;;;;;;;;13.19;72.99;103113.13;1271796;23;598;-67
2023/02/14 02:30:22;;;;;;;;;;;;;;;13.20;72.83;103114.00;1272014;23;627;-67
2023/02/14 02:31:12;;;;;;;;;;;;;;;13.19;72.81;103112.25;1272281;23;624;-67
2023/02/14 02:32:03;;;;;;;;;;;;;;;13.20;72.78;103109.53;1271920;23;602;-67
2023/02/14 02:32:53;;;;;;;;;;;;;;;13.20;72.10;103108.66;1272037;23;1889;-66
2023/02/14 02:33:43;;;;;;;;;;;;;;;13.19;72.26;103117.63;1271827;23;673;-66
2023/02/14 02:34:34;;;;;;;;;;;;;;;13.20;72.61;103116.69;1272035;23;694;-66
2023/02/14 02:35:24;;;;;;;;;;;;;;;13.20;72.83;103114.00;1271792;23;669;-66
2023/02/14 02:36:15;;;;;;;;;;;;;;;13.20;72.61;103111.31;1272034;23;633;-66
2023/02/14 02:37:05;;;;;;;;;;;;;;;13.20;72.17;103119.34;1272129;23;680;-66
2023/02/14 02:37:56;;;;;;;;;;;;;;;13.18;72.13;103113.19;1271857;23;660;-66
2023/02/14 02:38:46;;;;;;;;;;;;;;;13.19;72.38;103120.28;1272019;23;704;-66
2023/02/14 02:39:36;;;;;;;;;;;;;;;13.17;72.79;103115.00;1271743;23;614;-66
2023/02/14 02:40:27;;;;;;;;;;;;;;;13.16;72.82;103107.88;1271862;23;666;-66
2023/02/14 02:41:17;;;;;;;;;;;;;;;13.17;72.39;103115.00;1272157;23;673;-66
2023/02/14 02:42:08;;;;;;;;;;;;;;;13.17;72.18;103108.75;1272164;23;650;-65
2023/02/14 02:42:58;;;;;;;;;;;;;;;13.16;72.21;103109.69;1272127;23;658;-65
2023/02/14 02:43:49;;;;;;;;;;;;;;;13.17;72.55;103116.78;1271823;23;614;-67
2023/02/14 02:44:39;;;;;;;;;;;;;;;13.18;72.69;103107.84;1266497;23;661;-67
2023/02/14 02:45:29;;;;;;;;;;;;;;;13.16;72.48;103109.69;1267320;23;677;-67
2023/02/14 02:47:29;;;;;;;;;;;;;;;13.14;72.86;103103.50;1272854;23;634;-67
2023/02/14 02:48:19;;;;;;;;;;;;;;;13.14;72.99;103103.50;1271817;23;610;-67
2023/02/14 02:49:10;;;;;;;;;;;;;;;13.15;72.25;103107.94;1266376;23;681;-67
2023/02/14 02:53:28;;;;;;;;;;;;;;;13.15;72.84;103105.28;1272780;23;708;-65
2023/02/14 02:54:18;;;;;;;;;;;;;;;13.14;72.97;103109.72;1272200;23;681;-67
2023/02/14 02:55:09;;;;;;;;;;;;;;;13.14;72.42;103107.03;1271734;23;618;-67
2023/02/14 02:57:08;;;;;;;;;;;;;;;13.14;73.00;103100.81;1272843;23;696;-67
2023/02/14 02:57:59;;;;;;;;;;;;;;;13.15;72.91;103105.28;1271774;23;668;-67
2023/02/14 02:58:49;;;;;;;;;;;;;;;13.14;72.31;103101.69;1271923;23;771;-67
2023/02/14 02:59:40;;;;;;;;;;;;;;;13.15;72.10;103106.16;1271773;23;638;-67
2023/02/14 03:00:30;;;;;;;;;;;;;;;13.16;72.87;103101.66;1272007;23;645;-67
2023/02/14 03:01:20;;;;;;;;;;;;;;;13.15;72.48;103106.16;1272768;23;766;-67
2023/02/14 03:02:11;;;;;;;;;;;;;;;13.15;72.83;103099.91;1265790;23;632;-67
2023/02/14 03:05:19;;;;;;;;;;;;;;;13.15;72.14;103099.91;1272825;23;610;-67
2023/02/14 03:06:10;;;;;;;;;;;;;;;13.14;72.24;103103.50;1271846;23;626;-67
2023/02/14 03:07:00;;;;;;;;;;;;;;;13.12;72.65;103105.34;1271902;23;689;-67
2023/02/14 03:07:50;;;;;;;;;;;;;;;13.11;72.59;103100.94;1271769;23;724;-67
2023/02/14 03:08:41;;;;;;;;;;;;;;;13.11;72.46;103104.47;1271865;23;630;-67
2023/02/14 03:09:31;;;;;;;;;;;;;;;13.11;72.43;103099.13;1272181;23;618;-67
2023/02/14 03:10:22;;;;;;;;;;;;;;;13.10;72.94;103093.84;1271861;23;677;-67
2023/02/14 03:11:13;;;;;;;;;;;;;;;13.10;72.83;103093.84;1271789;23;613;-67
2023/02/14 03:12:03;;;;;;;;;;;;;;;13.10;72.54;103096.50;1272023;23;688;-67
2023/02/14 03:12:53;;;;;;;;;;;;;;;13.08;72.23;103093.88;1271726;23;1901;-67
2023/02/14 03:13:44;;;;;;;;;;;;;;;13.09;72.54;103089.41;1272074;23;677;-66
2023/02/14 03:14:34;;;;;;;;;;;;;;;13.10;72.67;103093.84;1272082;23;661;-65
2023/02/14 03:15:25;;;;;;;;;;;;;;;13.11;73.22;103100.94;1271879;23;657;-66
2023/02/14 03:16:15;;;;;;;;;;;;;;;13.10;72.95;103096.50;1272111;23;677;-66
2023/02/14 03:17:06;;;;;;;;;;;;;;;13.10;72.64;103091.16;1271832;23;640;-66
2023/02/14 03:17:56;;;;;;;;;;;;;;;13.11;72.24;103092.91;1271855;23;625;-66
2023/02/14 03:20:14;;;;;;;;;;;;;;;13.09;72.86;103095.63;1272779;23;691;-65
2023/02/14 03:21:05;;;;;;;;;;;;;;;13.07;72.48;103086.81;1266326;23;657;-66
2023/02/14 03:21:55;;;;;;;;;;;;;;;13.07;72.30;103086.81;1267092;23;625;-65
2023/02/14 03:22:47;;;;;;;;;;;;;;;13.06;72.30;103090.44;1272599;23;800;-66
2023/02/14 03:23:37;;;;;;;;;;;;;;;13.05;72.90;103086.00;1271763;23;740;-65
2023/02/14 03:24:28;;;;;;;;;;;;;;;13.05;72.90;103086.00;1271745;23;665;-65
2023/02/14 03:25:18;;;;;;;;;;;;;;;13.05;72.77;103085.13;1271957;23;696;-65
2023/02/14 03:26:08;;;;;;;;;;;;;;;13.05;72.16;103085.13;1273683;23;696;-66
2023/02/14 03:26:59;;;;;;;;;;;;;;;13.06;72.56;103081.53;1271985;23;633;-66
2023/02/14 03:27:49;;;;;;;;;;;;;;;13.04;72.66;103088.75;1272174;23;685;-66
2023/02/14 03:28:40;;;;;;;;;;;;;;;13.04;72.55;103080.72;1271754;23;617;-65
2023/02/14 03:29:30;;;;;;;;;;;;;;;13.04;73.16;103083.38;1272031;23;629;-65
2023/02/14 03:30:20;;;;;;;;;;;;;;;13.03;72.93;103084.31;1271757;23;618;-65
2023/02/14 03:31:11;;;;;;;;;;;;;;;13.04;72.71;103094.97;1271272;23;689;-65
2023/02/14 03:32:01;;;;;;;;;;;;;;;13.05;72.33;103095.84;1272093;23;665;-65
2023/02/14 03:32:52;;;;;;;;;;;;;;;13.05;72.86;103095.84;1265406;23;1894;-65
2023/02/14 03:33:42;;;;;;;;;;;;;;;13.05;72.71;103093.16;1266356;23;614;-65
2023/02/14 03:34:33;;;;;;;;;;;;;;;13.06;72.97;103086.88;1272416;23;666;-65
2023/02/14 03:35:23;;;;;;;;;;;;;;;13.05;72.42;103093.16;1271912;23;629;-65
2023/02/14 03:36:13;;;;;;;;;;;;;;;13.04;72.64;103094.09;1271657;23;614;-65
2023/02/14 03:37:04;;;;;;;;;;;;;;;13.02;72.13;103086.13;1271840;23;629;-65
2023/02/14 03:37:54;;;;;;;;;;;;;;;13.01;72.43;103084.38;1272096;23;645;-66
2023/02/14 03:38:45;;;;;;;;;;;;;;;13.01;72.29;103079.03;1271655;23;624;-65
2023/02/14 03:39:35;;;;;;;;;;;;;;;13.02;72.42;103082.56;1271897;23;661;-66
2023/02/14 03:40:26;;;;;;;;;;;;;;;13.02;72.83;103082.56;1271264;23;1076;-65
2023/02/14 03:41:16;;;;;;;;;;;;;;;13.02;72.56;103082.56;1271865;23;667;-65
2023/02/14 03:42:06;;;;;;;;;;;;;;;13.01;72.75;103080.81;1271568;23;614;-65
2023/02/14 03:42:57;;;;;;;;;;;;;;;13.02;72.23;103085.25;1272093;23;664;-66
2023/02/14 03:43:47;;;;;;;;;;;;;;;13.01;72.98;103080.81;1272077;23;806;-65
2023/02/14 03:44:38;;;;;;;;;;;;;;;13.00;72.98;103085.31;1271840;23;621;-65
2023/02/14 03:45:28;;;;;;;;;;;;;;;13.00;73.01;103089.78;1271908;23;653;-66
2023/02/14 03:46:18;;;;;;;;;;;;;;;13.01;72.62;103084.38;1271699;23;618;-66
2023/02/14 03:47:09;;;;;;;;;;;;;;;13.02;72.32;103085.25;1266249;23;614;-65
2023/02/14 03:47:59;;;;;;;;;;;;;;;13.01;72.16;103079.03;1267206;23;673;-66
2023/02/14 03:48:50;;;;;;;;;;;;;;;13.00;72.23;103081.75;1272461;23;618;-65
2023/02/14 03:49:40;;;;;;;;;;;;;;;13.01;72.34;103087.06;1266199;23;657;-65
2023/02/14 03:50:31;;;;;;;;;;;;;;;13.01;72.27;103083.50;1267218;23;645;-65
2023/02/14 03:51:21;;;;;;;;;;;;;;;13.01;72.69;103081.69;1272849;23;625;-65
2023/02/14 03:52:11;;;;;;;;;;;;;;;13.00;72.51;103079.09;1271655;23;657;-66
2023/02/14 03:53:02;;;;;;;;;;;;;;;12.97;72.63;103069.38;1271891;23;1901;-65
2023/02/14 03:53:52;;;;;;;;;;;;;;;12.99;72.16;103078.22;1272091;23;630;-65
2023/02/14 03:54:43;;;;;;;;;;;;;;;12.99;72.31;103071.97;1271659;23;677;-65
2023/02/14 03:55:33;;;;;;;;;;;;;;;13.00;73.01;103071.94;1271910;23;645;-65
2023/02/14 03:56:24;;;;;;;;;;;;;;;12.99;72.36;103071.97;1271391;23;1118;-65
2023/02/14 03:57:14;;;;;;;;;;;;;;;12.97;72.51;103073.84;1271859;23;670;-65
2023/02/14 03:58:05;;;;;;;;;;;;;;;12.99;72.63;103080.00;1271802;23;666;-66
2023/02/14 03:58:55;;;;;;;;;;;;;;;13.00;72.70;103084.44;1271923;23;641;-65
2023/02/14 03:59:46;;;;;;;;;;;;;;;12.99;72.54;103066.63;1271742;23;665;-65
2023/02/14 04:00:36;;;;;;;;;;;;;;;12.98;72.39;103081.81;1271774;23;657;-66
2023/02/14 04:01:27;;;;;;;;;;;;;;;12.97;72.71;103079.19;1271596;23;629;-66
2023/02/14 04:02:17;;;;;;;;;;;;;;;12.97;72.90;103077.38;1271845;23;606;-66
2023/02/14 04:03:10;;;;;;;;;;;;;;;12.97;72.11;103087.22;1271464;23;646;-65
2023/02/14 04:04:01;;;;;;;;;;;;;;;12.97;72.13;103077.38;1271600;23;607;-66
2023/02/14 04:04:51;;;;;;;;;;;;;;;12.97;72.18;103089.91;1271829;23;677;-66
2023/02/14 04:05:45;;;;;;;;;;;;;;;12.95;72.31;103083.72;1272045;23;717;-66
2023/02/14 04:06:35;;;;;;;;;;;;;;;12.95;72.99;103081.06;1272484;23;756;-66
2023/02/14 04:07:26;;;;;;;;;;;;;;;12.95;72.92;103087.28;1271798;23;653;-66
2023/02/14 04:08:16;;;;;;;;;;;;;;;12.95;72.29;103079.25;1272043;23;614;-65
2023/02/14 04:09:07;;;;;;;;;;;;;;;12.94;72.01;103087.34;1271757;23;666;-65
2023/02/14 04:09:57;;;;;;;;;;;;;;;12.94;72.42;103088.22;1271969;23;625;-66
2023/02/14 04:10:48;;;;;;;;;;;;;;;12.95;72.84;103081.06;1271699;23;698;-66
2023/02/14 04:11:38;;;;;;;;;;;;;;;12.96;72.18;103080.13;1266216;23;720;-66
2023/02/14 04:12:29;;;;;;;;;;;;;;;12.96;72.52;103085.47;1266872;23;617;-65
2023/02/14 04:13:19;;;;;;;;;;;;;;;12.95;72.35;103083.72;1272586;23;631;-66
2023/02/14 04:14:09;;;;;;;;;;;;;;;12.94;72.69;103096.25;1272013;23;606;-66
2023/02/14 04:15:00;;;;;;;;;;;;;;;12.93;72.05;103090.94;1271162;23;666;-66
2023/02/14 04:15:50;;;;;;;;;;;;;;;12.92;72.49;103091.88;1271893;23;653;-66
2023/02/14 04:20:08;;;;;;;;;;;;;;;12.89;72.87;103079.50;1272720;23;708;-67
2023/02/14 04:20:58;;;;;;;;;;;;;;;12.89;72.32;103084.88;1272628;23;689;-66
2023/02/14 04:21:49;;;;;;;;;;;;;;;12.90;72.11;103085.75;1271755;23;653;-66
2023/02/14 04:22:39;;;;;;;;;;;;;;;12.91;72.71;103085.66;1266202;23;645;-66
2023/02/14 04:23:30;;;;;;;;;;;;;;;12.90;72.67;103077.72;1267003;23;621;-66
2023/02/14 04:24:20;;;;;;;;;;;;;;;12.88;72.55;103085.78;1272558;23;758;-65
2023/02/14 04:25:11;;;;;;;;;;;;;;;12.90;72.17;103083.91;1271637;23;704;-66
2023/02/14 04:26:02;;;;;;;;;;;;;;;12.91;72.60;103092.81;1271776;23;650;-66
2023/02/14 04:27:08;;;;;;;;;;;;;;;12.89;72.16;103082.19;1271636;23;656;-65
2023/02/14 04:27:59;;;;;;;;;;;;;;;12.89;71.92;103082.19;1271809;23;661;-65
2023/02/14 04:28:49;;;;;;;;;;;;;;;12.89;72.49;103082.19;1271842;23;657;-66
2023/02/14 04:29:40;;;;;;;;;;;;;;;12.89;72.27;103086.66;1271624;23;621;-66
2023/02/14 04:30:30;;;;;;;;;;;;;;;12.88;72.14;103084.94;1271537;23;622;-66
2023/02/14 04:31:20;;;;;;;;;;;;;;;12.88;72.67;103090.28;1271886;23;622;-66
2023/02/14 04:32:11;;;;;;;;;;;;;;;12.88;72.28;103082.25;1271701;23;580;-66
2023/02/14 04:33:01;;;;;;;;;;;;;;;12.86;72.48;103077.81;1271823;23;1936;-66
2023/02/14 04:33:52;;;;;;;;;;;;;;;12.90;71.92;103080.38;1271810;23;614;-65
2023/02/14 04:34:42;;;;;;;;;;;;;;;12.88;72.17;103079.56;1271792;23;705;-65
2023/02/14 04:35:33;;;;;;;;;;;;;;;12.88;72.74;103079.56;1271555;23;649;-66
2023/02/14 04:36:23;;;;;;;;;;;;;;;12.88;72.90;103077.78;1271796;23;618;-66
2023/02/14 04:37:13;;;;;;;;;;;;;;;12.87;72.46;103073.34;1272070;23;599;-66
2023/02/14 04:38:04;;;;;;;;;;;;;;;12.85;72.92;103073.41;1271676;23;653;-66
2023/02/14 04:38:54;;;;;;;;;;;;;;;12.84;72.41;103071.66;1271848;23;673;-65
2023/02/14 04:39:45;;;;;;;;;;;;;;;12.83;72.91;103072.59;1271578;23;629;-66
2023/02/14 04:40:35;;;;;;;;;;;;;;;12.84;72.21;103074.34;1271830;23;657;-66
2023/02/14 04:41:26;;;;;;;;;;;;;;;12.83;72.94;103072.59;1271611;23;602;-66
2023/02/14 04:42:16;;;;;;;;;;;;;;;12.84;72.70;103068.09;1271819;23;685;-65